sensor_id;sensor_type;location;lat;lon;timestamp;P1;durP1;ratioP1;P2;durP2;ratioP2
36321;SDS011;23564;48.290;11.460;2022-07-30T00:02:21;3.97;;;2.20;;
36321;SDS011;23564;48.290;11.460;2022-07-30T00:04:46;3.20;;;2.35;;
36321;SDS011;23564;48.290;11.460;2022-07-30T00:07:12;4.40;;;2.83;;
36321;SDS011;23564;48.290;11.460;2022-07-30T00:09:38;3.13;;;2.53;;
36321;SDS011;23564;48.290;11.460;2022-07-30T00:12:04;3.67;;;2.45;;
36321;SDS011;23564;48.290;11.460;2022-07-30T00:14:31;2.13;;;1.92;;
36321;SDS011;23564;48.290;11.460;2022-07-30T00:16:56;4.57;;;2.60;;
36321;SDS011;23564;48.290;11.460;2022-07-30T00:19:22;5.10;;;2.65;;
36321;SDS011;23564;48.290;11.460;2022-07-30T00:21:48;4.75;;;2.67;;
36321;SDS011;23564;48.290;11.460;2022-07-30T00:24:13;3.70;;;2.50;;
36321;SDS011;23564;48.290;11.460;2022-07-30T00:26:39;4.30;;;2.47;;
36321;SDS011;23564;48.290;11.460;2022-07-30T00:29:05;2.60;;;2.38;;
36321;SDS011;23564;48.290;11.460;2022-07-30T00:31:31;3.15;;;2.22;;
36321;SDS011;23564;48.290;11.460;2022-07-30T00:33:56;2.50;;;2.28;;
36321;SDS011;23564;48.290;11.460;2022-07-30T00:36:22;5.30;;;2.53;;
36321;SDS011;23564;48.290;11.460;2022-07-30T00:38:48;6.75;;;2.90;;
36321;SDS011;23564;48.290;11.460;2022-07-30T00:41:14;4.50;;;2.50;;
36321;SDS011;23564;48.290;11.460;2022-07-30T00:43:39;7.00;;;3.17;;
36321;SDS011;23564;48.290;11.460;2022-07-30T00:46:05;6.03;;;2.13;;
36321;SDS011;23564;48.290;11.460;2022-07-30T00:48:31;4.57;;;2.35;;
36321;SDS011;23564;48.290;11.460;2022-07-30T00:50:56;6.57;;;2.42;;
36321;SDS011;23564;48.290;11.460;2022-07-30T00:53:22;3.05;;;2.47;;
36321;SDS011;23564;48.290;11.460;2022-07-30T00:55:47;7.25;;;2.80;;
36321;SDS011;23564;48.290;11.460;2022-07-30T00:58:13;5.72;;;2.58;;
36321;SDS011;23564;48.290;11.460;2022-07-30T01:00:39;2.30;;;2.10;;
36321;SDS011;23564;48.290;11.460;2022-07-30T01:03:04;4.78;;;2.47;;
36321;SDS011;23564;48.290;11.460;2022-07-30T01:05:30;5.15;;;2.13;;
36321;SDS011;23564;48.290;11.460;2022-07-30T01:07:56;3.90;;;2.00;;
36321;SDS011;23564;48.290;11.460;2022-07-30T01:10:22;3.95;;;2.60;;
36321;SDS011;23564;48.290;11.460;2022-07-30T01:12:47;3.05;;;2.45;;
36321;SDS011;23564;48.290;11.460;2022-07-30T01:15:13;4.13;;;2.50;;
36321;SDS011;23564;48.290;11.460;2022-07-30T01:17:40;5.50;;;2.70;;
36321;SDS011;23564;48.290;11.460;2022-07-30T01:20:07;3.40;;;1.98;;
36321;SDS011;23564;48.290;11.460;2022-07-30T01:28:11;3.72;;;2.30;;
36321;SDS011;23564;48.290;11.460;2022-07-30T01:30:40;6.18;;;2.30;;
36321;SDS011;23564;48.290;11.460;2022-07-30T01:33:07;3.83;;;2.20;;
36321;SDS011;23564;48.290;11.460;2022-07-30T01:35:38;3.22;;;2.55;;
36321;SDS011;23564;48.290;11.460;2022-07-30T01:38:05;3.08;;;2.40;;
36321;SDS011;23564;48.290;11.460;2022-07-30T01:40:33;7.40;;;3.03;;
36321;SDS011;23564;48.290;11.460;2022-07-30T01:43:01;3.95;;;2.50;;
36321;SDS011;23564;48.290;11.460;2022-07-30T01:45:29;5.47;;;2.60;;
36321;SDS011;23564;48.290;11.460;2022-07-30T01:47:57;2.65;;;2.08;;
36321;SDS011;23564;48.290;11.460;2022-07-30T01:50:24;3.95;;;2.78;;
36321;SDS011;23564;48.290;11.460;2022-07-30T01:52:52;4.40;;;2.30;;
36321;SDS011;23564;48.290;11.460;2022-07-30T01:55:31;4.95;;;2.60;;
36321;SDS011;23564;48.290;11.460;2022-07-30T01:58:03;3.65;;;2.33;;
36321;SDS011;23564;48.290;11.460;2022-07-30T02:00:30;3.70;;;2.33;;
36321;SDS011;23564;48.290;11.460;2022-07-30T02:02:58;8.75;;;2.90;;
36321;SDS011;23564;48.290;11.460;2022-07-30T02:05:25;5.85;;;2.47;;
36321;SDS011;23564;48.290;11.460;2022-07-30T02:07:55;7.30;;;2.63;;
36321;SDS011;23564;48.290;11.460;2022-07-30T02:10:27;2.60;;;2.20;;
36321;SDS011;23564;48.290;11.460;2022-07-30T02:12:54;4.40;;;2.50;;
36321;SDS011;23564;48.290;11.460;2022-07-30T02:15:28;6.05;;;2.65;;
36321;SDS011;23564;48.290;11.460;2022-07-30T02:18:39;12.80;;;2.67;;
36321;SDS011;23564;48.290;11.460;2022-07-30T02:21:02;11.27;;;2.70;;
36321;SDS011;23564;48.290;11.460;2022-07-30T02:23:30;5.55;;;3.30;;
36321;SDS011;23564;48.290;11.460;2022-07-30T02:26:02;6.50;;;2.80;;
36321;SDS011;23564;48.290;11.460;2022-07-30T02:28:29;4.95;;;2.97;;
36321;SDS011;23564;48.290;11.460;2022-07-30T02:30:59;6.50;;;3.50;;
36321;SDS011;23564;48.290;11.460;2022-07-30T02:33:26;4.13;;;3.20;;
36321;SDS011;23564;48.290;11.460;2022-07-30T02:35:55;6.10;;;3.60;;
36321;SDS011;23564;48.290;11.460;2022-07-30T02:38:22;6.97;;;3.42;;
36321;SDS011;23564;48.290;11.460;2022-07-30T02:40:51;7.07;;;3.10;;
36321;SDS011;23564;48.290;11.460;2022-07-30T02:43:19;4.88;;;3.00;;
36321;SDS011;23564;48.290;11.460;2022-07-30T02:45:49;3.40;;;2.92;;
36321;SDS011;23564;48.290;11.460;2022-07-30T02:48:15;4.93;;;3.05;;
36321;SDS011;23564;48.290;11.460;2022-07-30T02:50:41;5.22;;;3.30;;
36321;SDS011;23564;48.290;11.460;2022-07-30T02:53:09;19.23;;;3.17;;
36321;SDS011;23564;48.290;11.460;2022-07-30T02:55:37;5.22;;;3.10;;
36321;SDS011;23564;48.290;11.460;2022-07-30T02:58:04;5.55;;;3.22;;
36321;SDS011;23564;48.290;11.460;2022-07-30T03:00:31;6.25;;;3.08;;
36321;SDS011;23564;48.290;11.460;2022-07-30T03:02:58;5.43;;;3.70;;
36321;SDS011;23564;48.290;11.460;2022-07-30T03:05:25;4.47;;;3.60;;
36321;SDS011;23564;48.290;11.460;2022-07-30T03:07:52;5.32;;;3.83;;
36321;SDS011;23564;48.290;11.460;2022-07-30T03:10:20;6.22;;;4.32;;
36321;SDS011;23564;48.290;11.460;2022-07-30T03:12:46;6.75;;;3.17;;
36321;SDS011;23564;48.290;11.460;2022-07-30T03:15:14;5.47;;;3.78;;
36321;SDS011;23564;48.290;11.460;2022-07-30T03:17:44;5.88;;;3.47;;
36321;SDS011;23564;48.290;11.460;2022-07-30T03:20:14;7.50;;;3.30;;
36321;SDS011;23564;48.290;11.460;2022-07-30T03:22:43;6.68;;;3.38;;
36321;SDS011;23564;48.290;11.460;2022-07-30T03:25:13;11.20;;;3.72;;
36321;SDS011;23564;48.290;11.460;2022-07-30T03:27:40;4.50;;;2.90;;
36321;SDS011;23564;48.290;11.460;2022-07-30T03:30:07;6.75;;;3.50;;
36321;SDS011;23564;48.290;11.460;2022-07-30T03:32:34;6.45;;;3.60;;
36321;SDS011;23564;48.290;11.460;2022-07-30T03:35:04;6.55;;;3.88;;
36321;SDS011;23564;48.290;11.460;2022-07-30T03:37:31;7.82;;;4.22;;
36321;SDS011;23564;48.290;11.460;2022-07-30T03:40:00;7.25;;;4.03;;
36321;SDS011;23564;48.290;11.460;2022-07-30T03:42:27;7.68;;;3.72;;
36321;SDS011;23564;48.290;11.460;2022-07-30T03:44:54;6.30;;;3.40;;
36321;SDS011;23564;48.290;11.460;2022-07-30T03:47:20;6.38;;;3.40;;
36321;SDS011;23564;48.290;11.460;2022-07-30T03:49:46;7.65;;;3.05;;
36321;SDS011;23564;48.290;11.460;2022-07-30T03:52:12;4.05;;;2.95;;
36321;SDS011;23564;48.290;11.460;2022-07-30T03:54:38;6.70;;;3.63;;
36321;SDS011;23564;48.290;11.460;2022-07-30T03:57:04;5.32;;;3.13;;
36321;SDS011;23564;48.290;11.460;2022-07-30T03:59:30;8.65;;;3.40;;
36321;SDS011;23564;48.290;11.460;2022-07-30T04:01:58;5.32;;;3.47;;
36321;SDS011;23564;48.290;11.460;2022-07-30T04:04:25;5.35;;;3.50;;
36321;SDS011;23564;48.290;11.460;2022-07-30T04:06:51;8.10;;;3.63;;
36321;SDS011;23564;48.290;11.460;2022-07-30T04:09:17;6.40;;;3.45;;
36321;SDS011;23564;48.290;11.460;2022-07-30T04:11:43;7.05;;;3.17;;
36321;SDS011;23564;48.290;11.460;2022-07-30T04:14:09;9.45;;;3.45;;
36321;SDS011;23564;48.290;11.460;2022-07-30T04:19:30;4.80;;;3.40;;
36321;SDS011;23564;48.290;11.460;2022-07-30T04:22:19;9.13;;;3.78;;
36321;SDS011;23564;48.290;11.460;2022-07-30T04:24:48;6.65;;;3.78;;
36321;SDS011;23564;48.290;11.460;2022-07-30T04:27:16;9.30;;;3.42;;
36321;SDS011;23564;48.290;11.460;2022-07-30T04:29:42;5.28;;;3.25;;
36321;SDS011;23564;48.290;11.460;2022-07-30T04:32:07;5.50;;;3.40;;
36321;SDS011;23564;48.290;11.460;2022-07-30T04:34:34;5.93;;;3.38;;
36321;SDS011;23564;48.290;11.460;2022-07-30T04:37:00;6.68;;;3.97;;
36321;SDS011;23564;48.290;11.460;2022-07-30T04:39:26;8.13;;;3.35;;
36321;SDS011;23564;48.290;11.460;2022-07-30T04:41:51;3.97;;;3.20;;
36321;SDS011;23564;48.290;11.460;2022-07-30T04:44:18;4.63;;;3.55;;
36321;SDS011;23564;48.290;11.460;2022-07-30T04:46:44;4.82;;;3.30;;
36321;SDS011;23564;48.290;11.460;2022-07-30T04:49:11;7.50;;;3.22;;
36321;SDS011;23564;48.290;11.460;2022-07-30T04:51:38;6.40;;;2.90;;
36321;SDS011;23564;48.290;11.460;2022-07-30T04:54:04;4.20;;;2.92;;
36321;SDS011;23564;48.290;11.460;2022-07-30T04:56:32;6.40;;;2.90;;
36321;SDS011;23564;48.290;11.460;2022-07-30T04:58:59;10.25;;;3.22;;
36321;SDS011;23564;48.290;11.460;2022-07-30T05:01:26;4.63;;;2.90;;
36321;SDS011;23564;48.290;11.460;2022-07-30T05:03:57;5.53;;;3.08;;
36321;SDS011;23564;48.290;11.460;2022-07-30T05:06:25;6.57;;;3.38;;
36321;SDS011;23564;48.290;11.460;2022-07-30T05:08:52;5.28;;;2.85;;
36321;SDS011;23564;48.290;11.460;2022-07-30T05:11:18;5.97;;;3.05;;
36321;SDS011;23564;48.290;11.460;2022-07-30T05:13:45;4.95;;;3.05;;
36321;SDS011;23564;48.290;11.460;2022-07-30T05:16:12;6.70;;;3.63;;
36321;SDS011;23564;48.290;11.460;2022-07-30T05:18:39;7.63;;;3.53;;
36321;SDS011;23564;48.290;11.460;2022-07-30T05:21:05;6.45;;;2.90;;
36321;SDS011;23564;48.290;11.460;2022-07-30T05:23:31;3.65;;;2.70;;
36321;SDS011;23564;48.290;11.460;2022-07-30T05:25:57;3.88;;;2.75;;
36321;SDS011;23564;48.290;11.460;2022-07-30T05:28:23;4.68;;;3.05;;
36321;SDS011;23564;48.290;11.460;2022-07-30T05:30:50;5.60;;;3.30;;
36321;SDS011;23564;48.290;11.460;2022-07-30T05:33:20;8.13;;;3.58;;
36321;SDS011;23564;48.290;11.460;2022-07-30T05:35:47;4.05;;;2.78;;
36321;SDS011;23564;48.290;11.460;2022-07-30T05:38:13;4.60;;;3.30;;
36321;SDS011;23564;48.290;11.460;2022-07-30T05:40:39;6.22;;;3.08;;
36321;SDS011;23564;48.290;11.460;2022-07-30T05:43:04;6.55;;;3.40;;
36321;SDS011;23564;48.290;11.460;2022-07-30T05:45:30;4.68;;;2.90;;
36321;SDS011;23564;48.290;11.460;2022-07-30T05:47:56;7.20;;;3.45;;
36321;SDS011;23564;48.290;11.460;2022-07-30T05:50:21;4.53;;;3.30;;
36321;SDS011;23564;48.290;11.460;2022-07-30T05:52:47;6.70;;;3.30;;
36321;SDS011;23564;48.290;11.460;2022-07-30T05:55:13;6.40;;;2.88;;
36321;SDS011;23564;48.290;11.460;2022-07-30T05:57:38;4.38;;;2.90;;
36321;SDS011;23564;48.290;11.460;2022-07-30T06:00:06;5.15;;;3.00;;
36321;SDS011;23564;48.290;11.460;2022-07-30T06:02:33;5.30;;;2.95;;
36321;SDS011;23564;48.290;11.460;2022-07-30T06:04:59;5.25;;;3.40;;
36321;SDS011;23564;48.290;11.460;2022-07-30T06:07:25;11.68;;;3.78;;
36321;SDS011;23564;48.290;11.460;2022-07-30T06:09:51;7.25;;;3.22;;
36321;SDS011;23564;48.290;11.460;2022-07-30T06:12:16;9.38;;;3.17;;
36321;SDS011;23564;48.290;11.460;2022-07-30T06:14:42;3.92;;;3.20;;
36321;SDS011;23564;48.290;11.460;2022-07-30T06:17:08;8.07;;;2.95;;
36321;SDS011;23564;48.290;11.460;2022-07-30T06:19:34;4.75;;;3.05;;
36321;SDS011;23564;48.290;11.460;2022-07-30T06:21:59;5.88;;;3.05;;
36321;SDS011;23564;48.290;11.460;2022-07-30T06:24:25;4.90;;;3.30;;
36321;SDS011;23564;48.290;11.460;2022-07-30T06:26:51;6.40;;;3.65;;
36321;SDS011;23564;48.290;11.460;2022-07-30T06:29:16;4.72;;;3.40;;
36321;SDS011;23564;48.290;11.460;2022-07-30T06:31:42;5.18;;;3.47;;
36321;SDS011;23564;48.290;11.460;2022-07-30T06:34:07;4.53;;;3.33;;
36321;SDS011;23564;48.290;11.460;2022-07-30T06:36:33;12.80;;;3.72;;
36321;SDS011;23564;48.290;11.460;2022-07-30T06:38:59;5.72;;;3.80;;
36321;SDS011;23564;48.290;11.460;2022-07-30T06:41:24;5.07;;;3.58;;
36321;SDS011;23564;48.290;11.460;2022-07-30T06:43:50;6.95;;;4.10;;
36321;SDS011;23564;48.290;11.460;2022-07-30T06:46:16;5.60;;;3.75;;
36321;SDS011;23564;48.290;11.460;2022-07-30T06:48:41;5.43;;;3.83;;
36321;SDS011;23564;48.290;11.460;2022-07-30T06:51:07;5.55;;;3.70;;
36321;SDS011;23564;48.290;11.460;2022-07-30T06:53:33;6.72;;;3.85;;
36321;SDS011;23564;48.290;11.460;2022-07-30T06:55:58;7.20;;;4.28;;
36321;SDS011;23564;48.290;11.460;2022-07-30T06:58:24;7.35;;;4.40;;
36321;SDS011;23564;48.290;11.460;2022-07-30T07:00:50;7.88;;;4.90;;
36321;SDS011;23564;48.290;11.460;2022-07-30T07:03:15;5.68;;;4.47;;
36321;SDS011;23564;48.290;11.460;2022-07-30T07:05:41;10.02;;;5.30;;
36321;SDS011;23564;48.290;11.460;2022-07-30T07:08:07;5.97;;;4.25;;
36321;SDS011;23564;48.290;11.460;2022-07-30T07:10:32;6.70;;;4.90;;
36321;SDS011;23564;48.290;11.460;2022-07-30T07:12:58;6.85;;;4.80;;
36321;SDS011;23564;48.290;11.460;2022-07-30T07:15:24;9.43;;;5.18;;
36321;SDS011;23564;48.290;11.460;2022-07-30T07:17:50;8.98;;;4.93;;
36321;SDS011;23564;48.290;11.460;2022-07-30T07:20:16;6.35;;;4.82;;
36321;SDS011;23564;48.290;11.460;2022-07-30T07:22:41;8.05;;;4.90;;
36321;SDS011;23564;48.290;11.460;2022-07-30T07:25:07;10.23;;;5.65;;
36321;SDS011;23564;48.290;11.460;2022-07-30T07:27:33;10.32;;;5.82;;
36321;SDS011;23564;48.290;11.460;2022-07-30T07:29:58;8.43;;;5.88;;
36321;SDS011;23564;48.290;11.460;2022-07-30T07:32:24;9.02;;;5.70;;
36321;SDS011;23564;48.290;11.460;2022-07-30T07:34:49;7.40;;;5.28;;
36321;SDS011;23564;48.290;11.460;2022-07-30T07:37:15;8.27;;;6.13;;
36321;SDS011;23564;48.290;11.460;2022-07-30T07:39:41;9.60;;;5.15;;
36321;SDS011;23564;48.290;11.460;2022-07-30T07:42:07;9.90;;;5.95;;
36321;SDS011;23564;48.290;11.460;2022-07-30T07:44:32;9.15;;;6.75;;
36321;SDS011;23564;48.290;11.460;2022-07-30T07:46:58;10.00;;;6.20;;
36321;SDS011;23564;48.290;11.460;2022-07-30T07:49:23;11.02;;;7.70;;
36321;SDS011;23564;48.290;11.460;2022-07-30T07:51:49;10.93;;;5.90;;
36321;SDS011;23564;48.290;11.460;2022-07-30T07:54:15;8.82;;;5.78;;
36321;SDS011;23564;48.290;11.460;2022-07-30T07:56:41;12.82;;;6.75;;
36321;SDS011;23564;48.290;11.460;2022-07-30T07:59:06;10.38;;;6.57;;
36321;SDS011;23564;48.290;11.460;2022-07-30T08:01:32;11.93;;;6.88;;
36321;SDS011;23564;48.290;11.460;2022-07-30T08:03:58;15.80;;;6.65;;
36321;SDS011;23564;48.290;11.460;2022-07-30T08:06:23;11.13;;;6.10;;
36321;SDS011;23564;48.290;11.460;2022-07-30T08:08:49;12.20;;;6.57;;
36321;SDS011;23564;48.290;11.460;2022-07-30T08:11:15;13.88;;;6.43;;
36321;SDS011;23564;48.290;11.460;2022-07-30T08:13:40;9.50;;;5.47;;
36321;SDS011;23564;48.290;11.460;2022-07-30T08:16:06;12.05;;;6.18;;
36321;SDS011;23564;48.290;11.460;2022-07-30T08:18:36;9.90;;;5.82;;
36321;SDS011;23564;48.290;11.460;2022-07-30T08:21:02;9.23;;;5.32;;
36321;SDS011;23564;48.290;11.460;2022-07-30T08:23:28;5.60;;;4.45;;
36321;SDS011;23564;48.290;11.460;2022-07-30T08:25:55;13.32;;;6.10;;
36321;SDS011;23564;48.290;11.460;2022-07-30T08:28:22;7.35;;;4.80;;
36321;SDS011;23564;48.290;11.460;2022-07-30T08:30:48;10.82;;;5.40;;
36321;SDS011;23564;48.290;11.460;2022-07-30T08:33:14;7.22;;;4.90;;
36321;SDS011;23564;48.290;11.460;2022-07-30T08:35:40;10.27;;;4.78;;
36321;SDS011;23564;48.290;11.460;2022-07-30T08:38:06;6.93;;;4.35;;
36321;SDS011;23564;48.290;11.460;2022-07-30T08:40:32;12.55;;;4.97;;
36321;SDS011;23564;48.290;11.460;2022-07-30T08:43:01;9.00;;;5.60;;
36321;SDS011;23564;48.290;11.460;2022-07-30T08:45:28;14.73;;;4.10;;
36321;SDS011;23564;48.290;11.460;2022-07-30T08:47:54;9.57;;;5.15;;
36321;SDS011;23564;48.290;11.460;2022-07-30T08:50:23;10.65;;;4.50;;
36321;SDS011;23564;48.290;11.460;2022-07-30T08:52:49;8.50;;;4.72;;
36321;SDS011;23564;48.290;11.460;2022-07-30T08:55:15;8.60;;;4.80;;
36321;SDS011;23564;48.290;11.460;2022-07-30T08:57:41;8.82;;;4.00;;
36321;SDS011;23564;48.290;11.460;2022-07-30T09:00:07;11.90;;;3.63;;
36321;SDS011;23564;48.290;11.460;2022-07-30T09:02:34;7.50;;;4.60;;
36321;SDS011;23564;48.290;11.460;2022-07-30T09:04:59;8.30;;;4.38;;
36321;SDS011;23564;48.290;11.460;2022-07-30T09:07:25;13.40;;;5.03;;
36321;SDS011;23564;48.290;11.460;2022-07-30T09:09:50;10.23;;;3.72;;
36321;SDS011;23564;48.290;11.460;2022-07-30T09:12:32;6.78;;;3.97;;
36321;SDS011;23564;48.290;11.460;2022-07-30T09:17:42;6.78;;;3.45;;
36321;SDS011;23564;48.290;11.460;2022-07-30T09:20:15;9.73;;;3.45;;
36321;SDS011;23564;48.290;11.460;2022-07-30T09:22:46;6.15;;;3.70;;
36321;SDS011;23564;48.290;11.460;2022-07-30T09:25:13;8.67;;;4.13;;
36321;SDS011;23564;48.290;11.460;2022-07-30T09:27:42;9.15;;;4.47;;
36321;SDS011;23564;48.290;11.460;2022-07-30T09:30:10;5.13;;;3.37;;
36321;SDS011;23564;48.290;11.460;2022-07-30T09:32:45;6.18;;;3.10;;
36321;SDS011;23564;48.290;11.460;2022-07-30T09:35:15;6.35;;;3.30;;
36321;SDS011;23564;48.290;11.460;2022-07-30T09:37:42;6.40;;;2.95;;
36321;SDS011;23564;48.290;11.460;2022-07-30T09:40:12;8.77;;;3.08;;
36321;SDS011;23564;48.290;11.460;2022-07-30T09:42:42;6.45;;;3.53;;
36321;SDS011;23564;48.290;11.460;2022-07-30T09:45:09;11.43;;;3.50;;
36321;SDS011;23564;48.290;11.460;2022-07-30T09:47:40;5.30;;;3.72;;
36321;SDS011;23564;48.290;11.460;2022-07-30T09:50:10;7.60;;;3.38;;
36321;SDS011;23564;48.290;11.460;2022-07-30T09:52:38;7.18;;;3.75;;
36321;SDS011;23564;48.290;11.460;2022-07-30T09:55:06;6.43;;;2.83;;
36321;SDS011;23564;48.290;11.460;2022-07-30T09:57:32;5.90;;;2.92;;
36321;SDS011;23564;48.290;11.460;2022-07-30T10:00:07;5.07;;;2.55;;
36321;SDS011;23564;48.290;11.460;2022-07-30T10:02:41;9.00;;;3.03;;
36321;SDS011;23564;48.290;11.460;2022-07-30T10:05:11;6.57;;;2.97;;
36321;SDS011;23564;48.290;11.460;2022-07-30T10:10:18;4.47;;;2.92;;
36321;SDS011;23564;48.290;11.460;2022-07-30T10:12:45;4.60;;;2.65;;
36321;SDS011;23564;48.290;11.460;2022-07-30T10:15:14;5.80;;;2.00;;
36321;SDS011;23564;48.290;11.460;2022-07-30T10:17:44;3.40;;;2.08;;
36321;SDS011;23564;48.290;11.460;2022-07-30T10:20:10;6.97;;;2.83;;
36321;SDS011;23564;48.290;11.460;2022-07-30T10:22:37;9.85;;;3.20;;
36321;SDS011;23564;48.290;11.460;2022-07-30T10:25:03;17.40;;;2.83;;
36321;SDS011;23564;48.290;11.460;2022-07-30T10:27:29;4.93;;;2.42;;
36321;SDS011;23564;48.290;11.460;2022-07-30T10:29:56;3.45;;;2.22;;
36321;SDS011;23564;48.290;11.460;2022-07-30T10:32:25;4.82;;;1.95;;
36321;SDS011;23564;48.290;11.460;2022-07-30T10:34:51;5.80;;;2.33;;
36321;SDS011;23564;48.290;11.460;2022-07-30T10:37:17;5.65;;;2.53;;
36321;SDS011;23564;48.290;11.460;2022-07-30T10:39:48;7.22;;;1.95;;
36321;SDS011;23564;48.290;11.460;2022-07-30T10:42:21;9.65;;;3.75;;
36321;SDS011;23564;48.290;11.460;2022-07-30T10:47:37;5.95;;;2.10;;
36321;SDS011;23564;48.290;11.460;2022-07-30T10:50:08;3.65;;;1.80;;
36321;SDS011;23564;48.290;11.460;2022-07-30T10:52:47;6.95;;;1.98;;
36321;SDS011;23564;48.290;11.460;2022-07-30T10:55:16;4.28;;;2.08;;
36321;SDS011;23564;48.290;11.460;2022-07-30T10:57:55;3.53;;;1.45;;
36321;SDS011;23564;48.290;11.460;2022-07-30T11:00:22;5.60;;;1.60;;
36321;SDS011;23564;48.290;11.460;2022-07-30T11:08:44;5.80;;;1.90;;
36321;SDS011;23564;48.290;11.460;2022-07-30T11:16:21;4.55;;;1.70;;
36321;SDS011;23564;48.290;11.460;2022-07-30T11:19:03;2.22;;;1.23;;
36321;SDS011;23564;48.290;11.460;2022-07-30T11:21:40;7.93;;;1.52;;
36321;SDS011;23564;48.290;11.460;2022-07-30T11:24:06;3.00;;;1.30;;
36321;SDS011;23564;48.290;11.460;2022-07-30T11:27:07;5.30;;;1.90;;
36321;SDS011;23564;48.290;11.460;2022-07-30T11:32:23;3.50;;;1.30;;
36321;SDS011;23564;48.290;11.460;2022-07-30T11:34:50;2.65;;;1.45;;
36321;SDS011;23564;48.290;11.460;2022-07-30T11:37:17;3.35;;;1.58;;
36321;SDS011;23564;48.290;11.460;2022-07-30T11:42:34;10.15;;;1.85;;
36321;SDS011;23564;48.290;11.460;2022-07-30T11:47:43;4.38;;;1.67;;
36321;SDS011;23564;48.290;11.460;2022-07-30T11:50:19;3.42;;;1.77;;
36321;SDS011;23564;48.290;11.460;2022-07-30T11:52:52;3.88;;;2.05;;
36321;SDS011;23564;48.290;11.460;2022-07-30T11:57:58;3.65;;;1.90;;
36321;SDS011;23564;48.290;11.460;2022-07-30T12:00:24;3.55;;;1.83;;
36321;SDS011;23564;48.290;11.460;2022-07-30T12:02:57;2.10;;;1.30;;
36321;SDS011;23564;48.290;11.460;2022-07-30T12:05:24;5.75;;;1.20;;
36321;SDS011;23564;48.290;11.460;2022-07-30T12:07:55;3.88;;;1.38;;
36321;SDS011;23564;48.290;11.460;2022-07-30T12:10:24;3.28;;;1.00;;
36321;SDS011;23564;48.290;11.460;2022-07-30T12:12:50;2.10;;;1.48;;
36321;SDS011;23564;48.290;11.460;2022-07-30T12:15:28;4.40;;;1.40;;
36321;SDS011;23564;48.290;11.460;2022-07-30T12:17:56;1.17;;;1.02;;
36321;SDS011;23564;48.290;11.460;2022-07-30T12:20:21;5.70;;;1.20;;
36321;SDS011;23564;48.290;11.460;2022-07-30T12:22:47;6.50;;;1.08;;
36321;SDS011;23564;48.290;11.460;2022-07-30T12:25:13;2.42;;;1.13;;
36321;SDS011;23564;48.290;11.460;2022-07-30T12:27:39;2.80;;;1.30;;
36321;SDS011;23564;48.290;11.460;2022-07-30T12:30:08;4.30;;;1.80;;
36321;SDS011;23564;48.290;11.460;2022-07-30T12:32:35;3.50;;;1.20;;
36321;SDS011;23564;48.290;11.460;2022-07-30T12:35:00;2.53;;;1.10;;
36321;SDS011;23564;48.290;11.460;2022-07-30T12:37:26;4.50;;;1.40;;
36321;SDS011;23564;48.290;11.460;2022-07-30T12:40:09;6.28;;;1.42;;
36321;SDS011;23564;48.290;11.460;2022-07-30T12:42:47;2.60;;;1.30;;
36321;SDS011;23564;48.290;11.460;2022-07-30T12:45:27;2.80;;;1.30;;
36321;SDS011;23564;48.290;11.460;2022-07-30T12:47:56;7.80;;;1.20;;
36321;SDS011;23564;48.290;11.460;2022-07-30T12:50:23;3.53;;;1.50;;
36321;SDS011;23564;48.290;11.460;2022-07-30T12:52:50;3.17;;;1.10;;
36321;SDS011;23564;48.290;11.460;2022-07-30T12:55:18;2.97;;;1.13;;
36321;SDS011;23564;48.290;11.460;2022-07-30T13:00:22;3.38;;;1.45;;
36321;SDS011;23564;48.290;11.460;2022-07-30T13:03:18;2.00;;;1.10;;
36321;SDS011;23564;48.290;11.460;2022-07-30T13:05:49;2.17;;;1.38;;
36321;SDS011;23564;48.290;11.460;2022-07-30T13:08:16;12.88;;;1.65;;
36321;SDS011;23564;48.290;11.460;2022-07-30T13:10:57;2.83;;;1.40;;
36321;SDS011;23564;48.290;11.460;2022-07-30T13:13:25;6.13;;;1.60;;
36321;SDS011;23564;48.290;11.460;2022-07-30T13:16:09;2.10;;;1.25;;
36321;SDS011;23564;48.290;11.460;2022-07-30T13:18:35;3.33;;;1.52;;
36321;SDS011;23564;48.290;11.460;2022-07-30T13:21:02;3.45;;;1.63;;
36321;SDS011;23564;48.290;11.460;2022-07-30T13:23:29;3.38;;;1.33;;
36321;SDS011;23564;48.290;11.460;2022-07-30T13:25:55;1.75;;;1.17;;
36321;SDS011;23564;48.290;11.460;2022-07-30T13:28:21;2.83;;;1.45;;
36321;SDS011;23564;48.290;11.460;2022-07-30T13:30:47;2.78;;;1.35;;
36321;SDS011;23564;48.290;11.460;2022-07-30T13:33:13;1.85;;;1.60;;
36321;SDS011;23564;48.290;11.460;2022-07-30T13:35:39;5.07;;;1.20;;
36321;SDS011;23564;48.290;11.460;2022-07-30T13:38:04;4.30;;;1.55;;
36321;SDS011;23564;48.290;11.460;2022-07-30T13:40:30;3.30;;;1.92;;
36321;SDS011;23564;48.290;11.460;2022-07-30T13:42:59;4.65;;;1.50;;
36321;SDS011;23564;48.290;11.460;2022-07-30T13:45:25;3.90;;;1.80;;
36321;SDS011;23564;48.290;11.460;2022-07-30T13:47:51;5.05;;;1.02;;
36321;SDS011;23564;48.290;11.460;2022-07-30T13:50:17;5.57;;;1.50;;
36321;SDS011;23564;48.290;11.460;2022-07-30T13:52:43;5.03;;;1.15;;
36321;SDS011;23564;48.290;11.460;2022-07-30T13:55:09;4.18;;;1.73;;
36321;SDS011;23564;48.290;11.460;2022-07-30T13:57:34;8.70;;;1.60;;
36321;SDS011;23564;48.290;11.460;2022-07-30T14:00:00;4.20;;;1.25;;
36321;SDS011;23564;48.290;11.460;2022-07-30T14:02:27;2.88;;;1.23;;
36321;SDS011;23564;48.290;11.460;2022-07-30T14:04:53;3.97;;;1.50;;
36321;SDS011;23564;48.290;11.460;2022-07-30T14:07:18;3.53;;;1.33;;
36321;SDS011;23564;48.290;11.460;2022-07-30T14:09:44;1.58;;;1.30;;
36321;SDS011;23564;48.290;11.460;2022-07-30T14:12:09;3.42;;;1.60;;
36321;SDS011;23564;48.290;11.460;2022-07-30T14:14:35;5.55;;;1.30;;
36321;SDS011;23564;48.290;11.460;2022-07-30T14:17:00;1.77;;;1.08;;
36321;SDS011;23564;48.290;11.460;2022-07-30T14:19:26;3.00;;;1.17;;
36321;SDS011;23564;48.290;11.460;2022-07-30T14:21:52;4.00;;;1.23;;
36321;SDS011;23564;48.290;11.460;2022-07-30T14:24:17;1.73;;;1.23;;
36321;SDS011;23564;48.290;11.460;2022-07-30T14:26:44;2.00;;;1.30;;
36321;SDS011;23564;48.290;11.460;2022-07-30T14:29:10;2.42;;;1.17;;
36321;SDS011;23564;48.290;11.460;2022-07-30T14:31:35;2.97;;;1.00;;
36321;SDS011;23564;48.290;11.460;2022-07-30T14:34:01;2.17;;;1.10;;
36321;SDS011;23564;48.290;11.460;2022-07-30T14:36:28;2.30;;;1.50;;
36321;SDS011;23564;48.290;11.460;2022-07-30T14:38:57;2.72;;;1.35;;
36321;SDS011;23564;48.290;11.460;2022-07-30T14:41:24;5.25;;;1.17;;
36321;SDS011;23564;48.290;11.460;2022-07-30T14:43:50;2.58;;;1.23;;
36321;SDS011;23564;48.290;11.460;2022-07-30T14:46:16;8.18;;;1.48;;
36321;SDS011;23564;48.290;11.460;2022-07-30T14:48:42;2.58;;;1.00;;
36321;SDS011;23564;48.290;11.460;2022-07-30T14:51:07;3.45;;;1.35;;
36321;SDS011;23564;48.290;11.460;2022-07-30T14:53:33;2.33;;;1.23;;
36321;SDS011;23564;48.290;11.460;2022-07-30T14:55:59;2.13;;;1.30;;
36321;SDS011;23564;48.290;11.460;2022-07-30T14:58:24;3.92;;;1.00;;
36321;SDS011;23564;48.290;11.460;2022-07-30T15:00:50;4.18;;;1.25;;
36321;SDS011;23564;48.290;11.460;2022-07-30T15:03:16;3.13;;;1.08;;
36321;SDS011;23564;48.290;11.460;2022-07-30T15:05:41;2.83;;;1.23;;
36321;SDS011;23564;48.290;11.460;2022-07-30T15:08:07;1.33;;;1.20;;
36321;SDS011;23564;48.290;11.460;2022-07-30T15:10:33;1.95;;;1.30;;
36321;SDS011;23564;48.290;11.460;2022-07-30T15:12:58;5.90;;;1.20;;
36321;SDS011;23564;48.290;11.460;2022-07-30T15:15:24;5.22;;;1.63;;
36321;SDS011;23564;48.290;11.460;2022-07-30T15:17:50;3.88;;;1.52;;